Time;durP1;ratioP1;P1;durP2;ratioP2;P2;SDS_P1;SDS_P2;PMS_P1;PMS_P2;Temp;Humidity;BMP_temperature;BMP_pressure;BME280_temperature;BME280_humidity;BME280_pressure;Samples;Min_cycle;Max_cycle;Signal;HPM_P1;HPM_P2
2022/11/04 00:01:03;;;;;;;;;0.00;0.00;;;;;;;;4774465;29;45485;-96
2022/11/04 00:03:28;;;;;;;;;0.00;0.00;;;;;;;;4764101;29;28316;-95
2022/11/04 00:05:53;;;;;;;;;0.00;0.00;;;;;;;;4764151;29;28446;-93
2022/11/04 00:08:25;;;;;;;;;0.00;0.00;;;;;;;;4764097;29;28552;-96
2022/11/04 00:13:50;;;;;;;;;0.00;0.00;;;;;;;;4750402;30;28822;-96
2022/11/04 00:19:00;;;;;;;;;0.00;0.00;;;;;;;;4750597;30;28327;-94
2022/11/04 00:28:41;;;;;;;;;0.00;0.00;;;;;;;;4750393;30;28343;-95
2022/11/04 00:29:59;;;;;;;;;0.00;0.00;;;;;;;;4754346;29;28492;-95
2022/11/04 00:35:09;;;;;;;;;0.00;0.00;;;;;;;;4749874;30;28478;-96
2022/11/04 00:37:38;;;;;;;;;0.00;0.00;;;;;;;;4734202;30;28421;-94
2022/11/04 00:40:04;;;;;;;;;0.00;0.00;;;;;;;;4734003;30;28498;-95
2022/11/04 00:42:29;;;;;;;;;0.00;0.00;;;;;;;;4734251;30;28328;-95
2022/11/04 00:44:54;;;;;;;;;0.00;0.00;;;;;;;;4734301;30;30954;-94
2022/11/04 00:47:19;;;;;;;;;0.00;0.00;;;;;;;;4734340;30;28523;-95
2022/11/04 00:49:45;;;;;;;;;0.00;0.00;;;;;;;;4740740;30;27794;-94
2022/11/04 00:52:10;;;;;;;;;0.00;0.00;;;;;;;;4751751;29;27604;-96
2022/11/04 00:54:35;;;;;;;;;0.00;0.00;;;;;;;;4762767;29;44612;-96
2022/11/04 00:57:00;;;;;;;;;0.00;0.00;;;;;;;;4751728;29;45386;-94
2022/11/04 00:59:25;;;;;;;;;0.00;0.00;;;;;;;;4765236;29;40244;-96
2022/11/04 01:01:51;;;;;;;;;0.00;0.00;;;;;;;;4745064;30;42052;-95
2022/11/04 01:04:16;;;;;;;;;0.00;0.00;;;;;;;;4766731;29;42260;-96
2022/11/04 01:06:41;;;;;;;;;0.00;0.00;;;;;;;;4763593;29;28764;-94
2022/11/04 01:09:07;;;;;;;;;0.00;0.00;;;;;;;;4763364;29;28639;-95
2022/11/04 01:11:32;;;;;;;;;0.00;0.00;;;;;;;;4763703;29;28582;-95
2022/11/04 01:13:58;;;;;;;;;0.00;0.00;;;;;;;;4746411;30;46755;-95
2022/11/04 01:16:23;;;;;;;;;0.00;0.00;;;;;;;;4736898;30;28597;-94
2022/11/04 01:18:49;;;;;;;;;0.00;0.00;;;;;;;;4737323;29;28509;-94
2022/11/04 01:21:15;;;;;;;;;0.00;0.00;;;;;;;;4742511;29;28441;-95
2022/11/04 01:23:41;;;;;;;;;0.00;0.00;;;;;;;;4761948;29;42993;-95
2022/11/04 01:26:07;;;;;;;;;0.00;0.00;;;;;;;;4750502;29;45450;-95
2022/11/04 01:28:33;;;;;;;;;0.00;0.00;;;;;;;;4758825;29;45439;-95
2022/11/04 01:30:58;;;;;;;;;0.00;0.00;;;;;;;;4762623;29;45182;-94
2022/11/04 01:33:24;;;;;;;;;0.00;0.00;;;;;;;;4762846;30;44944;-95
2022/11/04 01:35:49;;;;;;;;;0.00;0.00;;;;;;;;4784743;29;8876;-94
2022/11/04 01:38:15;;;;;;;;;0.00;0.00;;;;;;;;4784465;29;9021;-93
2022/11/04 01:40:40;;;;;;;;;0.00;0.00;;;;;;;;4784183;29;10880;-94
2022/11/04 01:43:11;;;;;;;;;0.00;0.00;;;;;;;;4772122;29;28485;-95
2022/11/04 01:45:36;;;;;;;;;9.00;9.00;;;;;;;;4773469;29;27825;-94
2022/11/04 01:48:09;;;;;;;;;0.00;0.00;;;;;;;;4771808;29;28054;-93
2022/11/04 01:50:35;;;;;;;;;0.00;0.00;;;;;;;;4767050;29;28781;-96
2022/11/04 01:53:14;;;;;;;;;0.00;0.00;;;;;;;;4754485;29;31176;-95
2022/11/04 01:55:42;;;;;;;;;0.00;0.00;;;;;;;;4755041;30;45087;-95
2022/11/04 01:58:09;;;;;;;;;0.00;0.00;;;;;;;;4752060;30;45268;-95
2022/11/04 02:00:37;;;;;;;;;0.00;0.00;;;;;;;;4768192;30;16904;-95
2022/11/04 02:03:08;;;;;;;;;0.00;0.00;;;;;;;;4764054;30;39620;-95
2022/11/04 02:05:34;;;;;;;;;0.00;0.00;;;;;;;;4756771;30;29686;-95
2022/11/04 02:08:01;;;;;;;;;0.00;0.00;;;;;;;;4753452;30;28831;-94
2022/11/04 02:10:27;;;;;;;;;0.00;0.00;;;;;;;;4750788;30;28397;-93
2022/11/04 02:12:54;;;;;;;;;0.00;0.00;;;;;;;;4751803;30;29926;-94
2022/11/04 02:15:25;;;;;;;;;0.00;0.00;;;;;;;;4751035;30;28562;-95
2022/11/04 02:18:03;;;;;;;;;0.00;0.00;;;;;;;;4753552;29;28531;-94
2022/11/04 02:20:29;;;;;;;;;0.00;0.00;;;;;;;;4749437;29;44672;-94
2022/11/04 02:22:54;;;;;;;;;0.00;0.00;;;;;;;;4765270;29;45497;-96
2022/11/04 02:25:38;;;;;;;;;0.00;0.00;;;;;;;;4769218;29;26612;-95
2022/11/04 02:28:22;;;;;;;;;0.00;0.00;;;;;;;;4763377;30;9661;-96
2022/11/04 02:31:01;;;;;;;;;0.00;0.00;;;;;;;;4751352;30;45453;-96
2022/11/04 02:33:29;;;;;;;;;0.00;0.00;;;;;;;;4759033;29;45486;-94
2022/11/04 02:36:17;;;;;;;;;0.00;0.00;;;;;;;;4771410;29;16222;-94
2022/11/04 02:39:18;;;;;;;;;0.00;0.00;;;;;;;;4685864;30;28370;-95
2022/11/04 02:41:55;;;;;;;;;0.00;0.00;;;;;;;;4618115;30;44561;-95
2022/11/04 02:44:25;;;;;;;;;0.00;0.00;;;;;;;;4608713;30;45517;-96
2022/11/04 02:46:50;;;;;;;;;0.00;0.00;;;;;;;;4599933;30;45551;-95
2022/11/04 02:49:22;;;;;;;;;0.00;0.00;;;;;;;;4611592;30;44653;-94
2022/11/04 02:52:09;;;;;;;;;0.00;0.00;;;;;;;;4609706;30;45261;-93
2022/11/04 02:54:37;;;;;;;;;0.00;0.00;;;;;;;;4599786;30;47401;-93
2022/11/04 02:57:06;;;;;;;;;0.00;0.00;;;;;;;;4599759;30;45619;-95
2022/11/04 02:59:39;;;;;;;;;0.00;0.00;;;;;;;;4604651;30;45312;-95
2022/11/04 03:02:07;;;;;;;;;0.00;0.00;;;;;;;;4600120;30;45708;-95
2022/11/04 03:04:44;;;;;;;;;0.00;0.00;;;;;;;;4599446;30;47515;-95
2022/11/04 03:07:11;;;;;;;;;0.00;0.00;;;;;;;;4599811;30;45651;-95
2022/11/04 03:09:38;;;;;;;;;0.00;0.00;;;;;;;;4599742;30;45645;-96
2022/11/04 03:12:08;;;;;;;;;0.00;0.00;;;;;;;;4599767;30;45999;-95
2022/11/04 03:14:38;;;;;;;;;0.00;0.00;;;;;;;;4600994;30;47169;-94
2022/11/04 03:17:07;;;;;;;;;0.00;0.00;;;;;;;;4720490;30;45473;-94
2022/11/04 03:19:42;;;;;;;;;0.00;0.00;;;;;;;;4722886;30;45516;-96
2022/11/04 03:22:07;;;;;;;;;0.00;0.00;;;;;;;;4735214;30;45277;-96
2022/11/04 03:24:33;;;;;;;;;0.00;0.00;;;;;;;;4737356;29;47097;-94
2022/11/04 03:27:01;;;;;;;;;0.00;0.00;;;;;;;;4736466;29;45968;-95
2022/11/04 03:29:36;;;;;;;;;0.00;0.00;;;;;;;;4749963;29;45909;-95
2022/11/04 03:32:05;;;;;;;;;0.00;0.00;;;;;;;;4749669;29;45481;-94
2022/11/04 03:34:30;;;;;;;;;0.00;0.00;;;;;;;;4720115;30;47623;-95
2022/11/04 03:36:56;;;;;;;;;0.00;0.00;;;;;;;;4749818;29;46068;-96
2022/11/04 03:39:21;;;;;;;;;0.00;0.00;;;;;;;;4749800;29;45454;-95
2022/11/04 03:41:52;;;;;;;;;0.00;0.00;;;;;;;;4749239;29;45608;-94
2022/11/04 03:44:17;;;;;;;;;0.00;0.00;;;;;;;;4749887;29;47073;-94
2022/11/04 03:46:43;;;;;;;;;0.00;0.00;;;;;;;;4749344;29;45911;-95
2022/11/04 03:49:08;;;;;;;;;0.00;0.00;;;;;;;;4751844;29;45470;-95
2022/11/04 03:51:34;;;;;;;;;0.00;0.00;;;;;;;;4734045;30;45371;-95
2022/11/04 03:53:59;;;;;;;;;0.00;0.00;;;;;;;;4720264;30;48327;-95
2022/11/04 03:56:41;;;;;;;;;0.00;0.00;;;;;;;;4720077;30;45227;-93
2022/11/04 03:59:15;;;;;;;;;0.00;0.00;;;;;;;;4719813;30;45529;-95
2022/11/04 04:01:49;;;;;;;;;0.00;0.00;;;;;;;;4725058;29;45526;-95
2022/11/04 04:04:28;;;;;;;;;0.00;0.00;;;;;;;;4737262;29;47207;-94
2022/11/04 04:06:57;;;;;;;;;0.00;0.00;;;;;;;;4737303;29;45699;-93
2022/11/04 04:09:26;;;;;;;;;0.00;0.00;;;;;;;;4737358;29;45644;-94
2022/11/04 04:11:56;;;;;;;;;0.00;0.00;;;;;;;;4723640;30;45450;-94
2022/11/04 04:14:43;;;;;;;;;0.00;0.00;;;;;;;;4745503;29;47808;-95
2022/11/04 04:17:13;;;;;;;;;0.00;0.00;;;;;;;;4735233;30;45843;-95
2022/11/04 04:19:40;;;;;;;;;0.00;0.00;;;;;;;;4720620;30;45426;-94
2022/11/04 04:22:12;;;;;;;;;0.00;0.00;;;;;;;;4719754;30;45387;-94
2022/11/04 04:27:30;;;;;;;;;0.00;0.00;;;;;;;;4739545;29;45584;-94
2022/11/04 04:29:56;;;;;;;;;0.00;0.00;;;;;;;;4727475;29;45663;-94
2022/11/04 04:32:23;;;;;;;;;0.00;0.00;;;;;;;;4752778;29;45449;-94
2022/11/04 04:34:48;;;;;;;;;0.00;0.00;;;;;;;;4736660;29;48218;-94
2022/11/04 04:37:24;;;;;;;;;0.00;0.00;;;;;;;;4719489;30;46117;-95
2022/11/04 04:45:24;;;;;;;;;0.00;0.00;;;;;;;;4734639;30;45346;-95
2022/11/04 04:47:50;;;;;;;;;0.00;0.00;;;;;;;;4719934;30;46187;-94
2022/11/04 04:50:16;;;;;;;;;0.00;0.00;;;;;;;;4739161;29;45319;-95
2022/11/04 04:52:43;;;;;;;;;0.00;0.00;;;;;;;;4770671;29;8830;-94
2022/11/04 04:55:10;;;;;;;;;0.00;0.00;;;;;;;;4770404;29;8918;-94
2022/11/04 04:57:35;;;;;;;;;0.00;0.00;;;;;;;;4760704;30;8864;-95
2022/11/04 05:00:00;;;;;;;;;0.00;0.00;;;;;;;;4780690;29;38887;-94
2022/11/04 05:02:25;;;;;;;;;0.00;0.00;;;;;;;;4752677;29;44763;-95
2022/11/04 05:04:51;;;;;;;;;0.00;0.00;;;;;;;;4748987;29;47222;-94
2022/11/04 05:07:18;;;;;;;;;0.00;0.00;;;;;;;;4751492;29;45497;-96
2022/11/04 05:09:43;;;;;;;;;0.00;0.00;;;;;;;;4753566;29;45555;-94
2022/11/04 05:12:09;;;;;;;;;0.00;0.00;;;;;;;;4753034;29;45691;-94
2022/11/04 05:14:34;;;;;;;;;0.00;0.00;;;;;;;;4754572;29;46981;-94
2022/11/04 05:16:59;;;;;;;;;0.00;0.00;;;;;;;;4753133;29;45881;-94
2022/11/04 05:19:25;;;;;;;;;0.00;0.00;;;;;;;;4753626;29;45602;-94
2022/11/04 05:21:50;;;;;;;;;0.00;0.00;;;;;;;;4722655;30;45364;-95
2022/11/04 05:24:15;;;;;;;;;0.00;0.00;;;;;;;;4723426;30;46910;-95
2022/11/04 05:26:40;;;;;;;;;0.00;0.00;;;;;;;;4753431;29;45625;-94
2022/11/04 05:29:06;;;;;;;;;0.00;0.00;;;;;;;;4734531;29;45489;-94
2022/11/04 05:31:31;;;;;;;;;0.00;0.00;;;;;;;;4735181;30;45443;-95
2022/11/04 05:33:58;;;;;;;;;0.00;0.00;;;;;;;;4719050;30;48120;-95
2022/11/04 05:36:23;;;;;;;;;0.00;0.00;;;;;;;;4719154;30;45700;-95
2022/11/04 05:38:49;;;;;;;;;0.00;0.00;;;;;;;;4719098;30;45475;-95
2022/11/04 05:41:24;;;;;;;;;0.00;0.00;;;;;;;;4748570;29;45278;-95
2022/11/04 05:43:50;;;;;;;;;0.00;0.00;;;;;;;;4748377;29;47224;-95
2022/11/04 05:46:15;;;;;;;;;0.00;0.00;;;;;;;;4748252;29;46084;-94
2022/11/04 05:48:41;;;;;;;;;0.00;0.00;;;;;;;;4748476;29;45415;-94
2022/11/04 05:51:06;;;;;;;;;0.00;0.00;;;;;;;;4748719;29;45433;-95
2022/11/04 05:53:31;;;;;;;;;0.00;0.00;;;;;;;;4718767;30;46979;-95
2022/11/04 05:55:56;;;;;;;;;0.00;0.00;;;;;;;;4747886;29;45364;-94
2022/11/04 05:58:22;;;;;;;;;0.00;0.00;;;;;;;;4748108;29;45289;-95
2022/11/04 06:00:47;;;;;;;;;0.00;0.00;;;;;;;;4749925;29;45502;-94
2022/11/04 06:03:12;;;;;;;;;0.00;0.00;;;;;;;;4751109;29;48379;-94
2022/11/04 06:05:37;;;;;;;;;0.00;0.00;;;;;;;;4751179;29;45247;-95
2022/11/04 06:08:02;;;;;;;;;0.00;0.00;;;;;;;;4743098;29;45391;-94
2022/11/04 06:10:28;;;;;;;;;0.00;0.00;;;;;;;;4720955;30;45556;-95
2022/11/04 06:12:53;;;;;;;;;0.00;0.00;;;;;;;;4721220;30;47973;-94
2022/11/04 06:15:18;;;;;;;;;0.00;0.00;;;;;;;;4721518;30;45391;-95
2022/11/04 06:17:43;;;;;;;;;0.00;0.00;;;;;;;;4721544;30;45401;-95
2022/11/04 06:20:09;;;;;;;;;0.00;0.00;;;;;;;;4737737;29;45233;-95
2022/11/04 06:22:34;;;;;;;;;0.00;0.00;;;;;;;;4739240;29;47443;-94
2022/11/04 06:24:59;;;;;;;;;0.00;0.00;;;;;;;;4739507;29;45352;-95
2022/11/04 06:27:24;;;;;;;;;0.00;0.00;;;;;;;;4734902;30;45406;-94
2022/11/04 06:29:51;;;;;;;;;0.00;0.00;;;;;;;;4751162;29;45327;-94
2022/11/04 06:32:17;;;;;;;;;0.00;0.00;;;;;;;;4723728;30;48260;-94
2022/11/04 06:34:42;;;;;;;;;0.00;0.00;;;;;;;;4728580;30;45419;-95
2022/11/04 06:37:08;;;;;;;;;0.00;0.00;;;;;;;;4728775;30;45446;-95
2022/11/04 06:39:33;;;;;;;;;0.00;0.00;;;;;;;;4728614;30;45549;-95
2022/11/04 06:41:58;;;;;;;;;0.00;0.00;;;;;;;;4724773;30;48180;-94
2022/11/04 06:44:23;;;;;;;;;0.00;0.00;;;;;;;;4721450;30;45629;-94
2022/11/04 06:46:49;;;;;;;;;0.00;0.00;;;;;;;;4721430;30;45341;-95
2022/11/04 06:49:16;;;;;;;;;0.00;0.00;;;;;;;;4721095;30;45618;-95
2022/11/04 06:51:42;;;;;;;;;0.00;0.00;;;;;;;;4721327;30;47219;-96
2022/11/04 06:54:07;;;;;;;;;0.00;0.00;;;;;;;;4720891;30;45357;-95
2022/11/04 06:56:32;;;;;;;;;0.00;0.00;;;;;;;;4720329;30;45565;-95
2022/11/04 06:58:58;;;;;;;;;0.00;0.00;;;;;;;;4721288;30;45273;-95
2022/11/04 07:01:24;;;;;;;;;0.00;0.00;;;;;;;;4720977;30;47130;-95
2022/11/04 07:03:51;;;;;;;;;0.00;0.00;;;;;;;;4720928;30;45655;-95
2022/11/04 07:06:16;;;;;;;;;0.00;0.00;;;;;;;;4720978;30;45437;-95
2022/11/04 07:08:41;;;;;;;;;0.00;0.00;;;;;;;;4724074;29;45357;-95
2022/11/04 07:11:07;;;;;;;;;0.00;0.00;;;;;;;;4721080;30;47310;-94
2022/11/04 07:13:32;;;;;;;;;0.00;0.00;;;;;;;;4750596;29;45476;-94
2022/11/04 07:15:57;;;;;;;;;0.00;0.00;;;;;;;;4749935;29;45641;-95
2022/11/04 07:18:22;;;;;;;;;0.00;0.00;;;;;;;;4749963;29;45708;-94
2022/11/04 07:20:48;;;;;;;;;0.00;0.00;;;;;;;;4737771;29;47117;-94
2022/11/04 07:23:13;;;;;;;;;0.00;0.00;;;;;;;;4744412;30;45897;-95
2022/11/04 07:25:38;;;;;;;;;0.00;0.00;;;;;;;;4753296;30;8941;-94
2022/11/04 07:28:04;;;;;;;;;0.00;0.00;;;;;;;;4757307;30;8888;-94
2022/11/04 07:30:29;;;;;;;;;0.00;0.00;;;;;;;;4733883;30;45309;-94
2022/11/04 07:32:55;;;;;;;;;0.00;0.00;;;;;;;;4720432;30;45376;-94
2022/11/04 07:35:20;;;;;;;;;0.00;0.00;;;;;;;;4754316;30;11331;-96
2022/11/04 07:37:45;;;;;;;;;0.00;0.00;;;;;;;;4753878;30;8977;-93
2022/11/04 07:40:11;;;;;;;;;0.00;0.00;;;;;;;;4754152;30;8852;-92
2022/11/04 07:42:36;;;;;;;;;0.00;0.00;;;;;;;;4759936;29;8889;-94
2022/11/04 07:45:01;;;;;;;;;0.00;0.00;;;;;;;;4764806;29;8899;-93
2022/11/04 07:47:30;;;;;;;;;0.00;0.00;;;;;;;;4750933;29;8902;-85
2022/11/04 07:49:55;;;;;;;;;0.00;0.00;;;;;;;;4769411;29;28845;-85
2022/11/04 07:52:21;;;;;;;;;0.00;0.00;;;;;;;;4757993;29;28539;-84
2022/11/04 07:54:46;;;;;;;;;0.00;0.00;;;;;;;;4746878;29;27782;-86
2022/11/04 07:57:11;;;;;;;;;0.00;0.00;;;;;;;;4762000;29;28619;-86
2022/11/04 07:59:37;;;;;;;;;0.00;0.00;;;;;;;;4765562;29;29272;-86
2022/11/04 08:02:02;;;;;;;;;0.00;0.00;;;;;;;;4736942;29;45434;-87
2022/11/04 08:04:27;;;;;;;;;0.00;0.00;;;;;;;;4746582;29;45688;-87
2022/11/04 08:06:52;;;;;;;;;0.00;0.00;;;;;;;;4746630;29;45385;-87
2022/11/04 08:09:17;;;;;;;;;0.00;0.00;;;;;;;;4745097;29;45779;-87
2022/11/04 08:11:43;;;;;;;;;0.00;0.00;;;;;;;;4735716;29;45437;-89
2022/11/04 08:14:08;;;;;;;;;0.00;0.00;;;;;;;;4734499;29;45608;-87
2022/11/04 08:16:34;;;;;;;;;0.00;0.00;;;;;;;;4733592;29;45518;-83
2022/11/04 08:19:02;;;;;;;;;0.00;0.00;;;;;;;;4726798;29;49489;-84
2022/11/04 08:21:28;;;;;;;;;0.00;0.00;;;;;;;;4744680;29;45448;-87
2022/11/04 08:23:54;;;;;;;;;0.00;0.00;;;;;;;;4729039;29;45642;-88
2022/11/04 08:26:20;;;;;;;;;0.00;0.00;;;;;;;;4742558;29;45782;-88
2022/11/04 08:28:45;;;;;;;;;0.00;0.00;;;;;;;;4725415;29;47346;-89
2022/11/04 08:31:14;;;;;;;;;0.00;0.00;;;;;;;;4736490;29;45585;-87
2022/11/04 08:33:39;;;;;;;;;0.00;0.00;;;;;;;;4731288;29;45880;-89
2022/11/04 08:36:09;;;;;;;;;0.00;0.00;;;;;;;;4768175;29;8877;-89
2022/11/04 08:38:34;;;;;;;;;0.00;0.00;;;;;;;;4766040;29;8845;-88
2022/11/04 08:41:01;;;;;;;;;0.00;0.00;;;;;;;;4767463;29;8867;-88
2022/11/04 08:43:27;;;;;;;;;0.00;0.00;;;;;;;;4778481;29;8845;-84
2022/11/04 08:45:52;;;;;;;;;0.00;0.00;;;;;;;;4765981;29;8867;-87
2022/11/04 08:48:17;;;;;;;;;0.00;0.00;;;;;;;;4750244;29;45540;-85
2022/11/04 08:50:46;;;;;;;;;0.00;0.00;;;;;;;;4750736;29;45328;-88
2022/11/04 08:53:12;;;;;;;;;0.00;0.00;;;;;;;;4751640;29;45338;-88
2022/11/04 08:55:37;;;;;;;;;0.00;0.00;;;;;;;;4729844;29;45527;-86
2022/11/04 08:58:02;;;;;;;;;0.00;0.00;;;;;;;;4737283;29;47827;-87
2022/11/04 09:00:27;;;;;;;;;0.00;0.00;;;;;;;;4735639;29;45609;-86
2022/11/04 09:02:54;;;;;;;;;0.00;0.00;;;;;;;;4750935;29;45241;-87
2022/11/04 09:05:19;;;;;;;;;0.00;0.00;;;;;;;;4733765;29;45496;-84
2022/11/04 09:07:44;;;;;;;;;0.00;0.00;;;;;;;;4749925;29;46149;-84
2022/11/04 09:10:10;;;;;;;;;0.00;0.00;;;;;;;;4749669;29;45994;-84
2022/11/04 09:12:35;;;;;;;;;0.00;0.00;;;;;;;;4750596;29;45498;-85
2022/11/04 09:15:01;;;;;;;;;0.00;0.00;;;;;;;;4739408;29;45839;-85
2022/11/04 09:17:26;;;;;;;;;0.00;0.00;;;;;;;;4732319;29;46328;-85
2022/11/04 09:19:51;;;;;;;;;0.00;0.00;;;;;;;;4746093;29;45681;-86
2022/11/04 09:22:17;;;;;;;;;0.00;0.00;;;;;;;;4769156;29;8998;-85
2022/11/04 09:24:42;;;;;;;;;0.00;0.00;;;;;;;;4782220;29;8944;-86
2022/11/04 09:27:07;;;;;;;;;0.00;0.00;;;;;;;;4782005;29;10276;-86
2022/11/04 09:29:32;;;;;;;;;0.00;0.00;;;;;;;;4765510;29;8956;-85
2022/11/04 09:31:58;;;;;;;;;0.00;0.00;;;;;;;;4755529;29;8865;-85
2022/11/04 09:34:23;;;;;;;;;0.00;0.00;;;;;;;;4778216;29;8994;-87
2022/11/04 09:36:48;;;;;;;;;0.00;0.00;;;;;;;;4765982;29;8996;-87
2022/11/04 09:39:14;;;;;;;;;0.00;0.00;;;;;;;;4766798;29;8869;-86
2022/11/04 09:41:59;;;;;;;;;0.00;0.00;;;;;;;;4765015;29;8964;-86
2022/11/04 09:44:28;;;;;;;;;0.00;0.00;;;;;;;;4772488;29;8854;-86
2022/11/04 09:46:59;;;;;;;;;0.00;0.00;;;;;;;;4759175;30;8868;-86
2022/11/04 09:49:26;;;;;;;;;0.00;0.00;;;;;;;;4763871;29;11682;-86
2022/11/04 09:51:51;;;;;;;;;0.00;0.00;;;;;;;;4782210;29;11646;-86
2022/11/04 09:54:30;;;;;;;;;0.00;0.00;;;;;;;;4768395;29;8895;-86
2022/11/04 09:56:57;;;;;;;;;0.00;0.00;;;;;;;;4768496;29;8845;-86
2022/11/04 09:59:33;;;;;;;;;0.00;0.00;;;;;;;;4768053;29;8838;-86
2022/11/04 10:02:07;;;;;;;;;0.00;0.00;;;;;;;;4783667;29;8845;-86
2022/11/04 10:04:41;;;;;;;;;0.00;0.00;;;;;;;;4760108;29;45470;-87
2022/11/04 10:07:29;;;;;;;;;0.00;0.00;;;;;;;;4743346;29;45425;-86
2022/11/04 10:10:00;;;;;;;;;0.00;0.00;;;;;;;;4727970;29;45597;-85
2022/11/04 10:12:43;;;;;;;;;0.00;0.00;;;;;;;;4751902;29;45655;-85
2022/11/04 10:15:08;;;;;;;;;0.00;0.00;;;;;;;;4747322;29;45514;-85
2022/11/04 10:17:49;;;;;;;;;0.00;0.00;;;;;;;;4740374;29;46299;-86
2022/11/04 10:20:40;;;;;;;;;0.00;0.00;;;;;;;;4732507;29;45509;-87
2022/11/04 10:23:21;;;;;;;;;0.00;0.00;;;;;;;;4718861;29;45503;-86
2022/11/04 10:26:04;;;;;;;;;0.00;0.00;;;;;;;;4722686;29;45608;-87
2022/11/04 10:28:34;;;;;;;;;0.00;0.00;;;;;;;;4725450;30;46919;-87
2022/11/04 10:31:01;;;;;;;;;0.00;0.00;;;;;;;;4741751;29;45588;-86
2022/11/04 10:33:32;;;;;;;;;0.00;0.00;;;;;;;;4747965;29;45551;-87
2022/11/04 10:36:00;;;;;;;;;0.00;0.00;;;;;;;;4726571;29;45563;-86
2022/11/04 10:38:28;;;;;;;;;0.00;0.00;;;;;;;;4748899;29;46387;-87
2022/11/04 10:40:54;;;;;;;;;0.00;0.00;;;;;;;;4745304;29;45939;-87
2022/11/04 10:43:27;;;;;;;;;0.00;0.00;;;;;;;;4741692;29;45545;-86
2022/11/04 10:46:00;;;;;;;;;0.00;0.00;;;;;;;;4761331;29;45579;-87
2022/11/04 10:48:31;;;;;;;;;0.00;0.00;;;;;;;;4778085;29;8844;-87
2022/11/04 10:50:57;;;;;;;;;0.00;0.00;;;;;;;;4770794;29;8852;-87
2022/11/04 10:53:24;;;;;;;;;0.00;0.00;;;;;;;;4761862;29;8848;-86
2022/11/04 10:56:09;;;;;;;;;0.00;0.00;;;;;;;;4761358;29;11769;-87
2022/11/04 10:58:35;;;;;;;;;0.00;0.00;;;;;;;;4761525;30;11717;-88
2022/11/04 11:01:20;;;;;;;;;0.00;0.00;;;;;;;;4772889;29;11712;-87
2022/11/04 11:03:45;;;;;;;;;0.00;0.00;;;;;;;;4761054;29;8962;-87
2022/11/04 11:06:13;;;;;;;;;0.00;0.00;;;;;;;;4777915;29;11682;-87
2022/11/04 11:08:40;;;;;;;;;0.00;0.00;;;;;;;;4771767;29;8871;-88
2022/11/04 11:11:06;;;;;;;;;0.00;0.00;;;;;;;;4734842;29;45902;-88
2022/11/04 11:13:36;;;;;;;;;0.00;0.00;;;;;;;;4727854;29;45521;-88
2022/11/04 11:16:31;;;;;;;;;0.00;0.00;;;;;;;;4731123;29;45842;-87
2022/11/04 11:19:13;;;;;;;;;0.00;0.00;;;;;;;;4717443;29;47571;-86
2022/11/04 11:21:44;;;;;;;;;0.00;0.00;;;;;;;;4741662;29;45436;-86
2022/11/04 11:24:15;;;;;;;;;0.00;0.00;;;;;;;;4726383;29;45818;-88
2022/11/04 11:26:46;;;;;;;;;0.00;0.00;;;;;;;;4740128;29;45525;-88
2022/11/04 11:29:12;;;;;;;;;0.00;0.00;;;;;;;;4722634;29;47238;-88
2022/11/04 11:31:39;;;;;;;;;0.00;0.00;;;;;;;;4723423;29;46127;-89
2022/11/04 11:34:06;;;;;;;;;0.00;0.00;;;;;;;;4731106;29;45387;-90
2022/11/04 11:36:36;;;;;;;;;0.00;0.00;;;;;;;;4726451;29;45765;-88
2022/11/04 11:39:11;;;;;;;;;0.00;0.00;;;;;;;;4752687;29;45588;-88
2022/11/04 11:41:48;;;;;;;;;0.00;0.00;;;;;;;;4729017;29;45527;-88
2022/11/04 11:44:22;;;;;;;;;0.00;0.00;;;;;;;;4734712;29;45435;-86
2022/11/04 11:46:55;;;;;;;;;0.00;0.00;;;;;;;;4731221;29;45420;-90
2022/11/04 11:49:27;;;;;;;;;0.00;0.00;;;;;;;;4732381;29;47101;-87
2022/11/04 11:51:52;;;;;;;;;0.00;0.00;;;;;;;;4751296;29;45864;-88
2022/11/04 11:54:33;;;;;;;;;0.00;0.00;;;;;;;;4754059;29;45993;-87
2022/11/04 11:57:02;;;;;;;;;0.00;0.00;;;;;;;;4733956;29;45452;-90
2022/11/04 11:59:46;;;;;;;;;0.00;0.00;;;;;;;;4729632;29;47427;-89
2022/11/04 12:02:30;;;;;;;;;0.00;0.00;;;;;;;;4734968;29;45872;-89
2022/11/04 12:04:56;;;;;;;;;0.00;0.00;;;;;;;;4737837;29;45529;-90
2022/11/04 12:07:31;;;;;;;;;0.00;0.00;;;;;;;;4724249;30;45466;-88
2022/11/04 12:10:08;;;;;;;;;0.00;0.00;;;;;;;;4735573;29;46615;-87
2022/11/04 12:12:36;;;;;;;;;0.00;0.00;;;;;;;;4719427;29;46379;-86
2022/11/04 12:15:20;;;;;;;;;0.00;0.00;;;;;;;;4735752;29;45504;-89
2022/11/04 12:17:56;;;;;;;;;0.00;0.00;;;;;;;;4722671;29;45681;-89
2022/11/04 12:20:25;;;;;;;;;0.00;0.00;;;;;;;;4728261;29;46360;-87
2022/11/04 12:22:59;;;;;;;;;0.00;0.00;;;;;;;;4747548;29;45690;-88
2022/11/04 12:25:33;;;;;;;;;0.00;0.00;;;;;;;;4747154;29;45553;-91
2022/11/04 12:28:08;;;;;;;;;0.00;0.00;;;;;;;;4749771;29;45467;-87
2022/11/04 12:30:59;;;;;;;;;0.00;0.00;;;;;;;;4734916;30;48169;-89
2022/11/04 12:33:24;;;;;;;;;0.00;0.00;;;;;;;;4660468;30;45544;-88
2022/11/04 12:36:04;;;;;;;;;0.00;0.00;;;;;;;;4655598;30;45345;-89
2022/11/04 12:38:29;;;;;;;;;0.00;0.00;;;;;;;;4647947;30;45549;-90
2022/11/04 12:41:04;;;;;;;;;0.00;0.00;;;;;;;;4644190;30;47916;-89
2022/11/04 12:43:32;;;;;;;;;0.00;0.00;;;;;;;;4656639;30;45507;-90
2022/11/04 12:46:10;;;;;;;;;0.00;0.00;;;;;;;;4662600;30;46091;-91
2022/11/04 12:48:36;;;;;;;;;0.00;0.00;;;;;;;;4645963;30;45441;-90
2022/11/04 12:51:06;;;;;;;;;0.00;0.00;;;;;;;;4658478;30;45726;-91
2022/11/04 12:53:34;;;;;;;;;0.00;0.00;;;;;;;;4657147;30;45562;-91
2022/11/04 12:56:05;;;;;;;;;0.00;0.00;;;;;;;;4658055;30;45490;-90
2022/11/04 12:58:36;;;;;;;;;0.00;0.00;;;;;;;;4643251;30;45491;-91
2022/11/04 13:01:24;;;;;;;;;0.00;0.00;;;;;;;;4656966;30;47377;-90
2022/11/04 13:04:12;;;;;;;;;0.00;0.00;;;;;;;;4643066;30;45634;-91
2022/11/04 13:06:43;;;;;;;;;0.00;0.00;;;;;;;;4646429;30;45788;-89
2022/11/04 13:09:12;;;;;;;;;0.00;0.00;;;;;;;;4658824;29;45550;-90
2022/11/04 13:11:44;;;;;;;;;0.00;0.00;;;;;;;;4750272;29;45511;-91
2022/11/04 13:14:34;;;;;;;;;0.00;0.00;;;;;;;;4749606;29;45373;-91
2022/11/04 13:17:02;;;;;;;;;0.00;0.00;;;;;;;;4748647;29;46603;-90
2022/11/04 13:19:33;;;;;;;;;0.00;0.00;;;;;;;;4734009;29;45514;-90
2022/11/04 13:22:01;;;;;;;;;0.00;0.00;;;;;;;;4731943;29;48026;-93
2022/11/04 13:24:31;;;;;;;;;0.00;0.00;;;;;;;;4736181;29;45478;-92
2022/11/04 13:26:59;;;;;;;;;0.00;0.00;;;;;;;;4728696;29;45655;-90
2022/11/04 13:29:25;;;;;;;;;0.00;0.00;;;;;;;;4731962;29;46634;-90
2022/11/04 13:31:59;;;;;;;;;0.00;0.00;;;;;;;;4746023;29;45542;-89
2022/11/04 13:34:35;;;;;;;;;0.00;0.00;;;;;;;;4751594;29;46023;-91
2022/11/04 13:37:19;;;;;;;;;0.00;0.00;;;;;;;;4732854;29;45571;-88
2022/11/04 13:39:47;;;;;;;;;0.00;0.00;;;;;;;;4747206;29;45601;-87
2022/11/04 13:42:31;;;;;;;;;0.00;0.00;;;;;;;;4723232;30;48464;-89
2022/11/04 13:44:57;;;;;;;;;0.00;0.00;;;;;;;;4749357;29;45506;-90
2022/11/04 13:47:33;;;;;;;;;0.00;0.00;;;;;;;;4748102;29;45558;-89
2022/11/04 13:49:59;;;;;;;;;0.00;0.00;;;;;;;;4730293;29;46982;-90
2022/11/04 13:52:27;;;;;;;;;0.00;0.00;;;;;;;;4749567;29;45491;-90
2022/11/04 13:54:56;;;;;;;;;0.00;0.00;;;;;;;;4743040;29;45419;-90
2022/11/04 13:57:22;;;;;;;;;0.00;0.00;;;;;;;;4723987;29;45504;-89
2022/11/04 14:00:06;;;;;;;;;0.00;0.00;;;;;;;;4745015;29;45503;-90
2022/11/04 14:02:37;;;;;;;;;0.00;0.00;;;;;;;;4743009;29;46806;-89
2022/11/04 14:05:22;;;;;;;;;0.00;0.00;;;;;;;;4735242;29;45623;-89
2022/11/04 14:10:44;;;;;;;;;0.00;0.00;;;;;;;;4744873;29;45788;-91
2022/11/04 14:13:36;;;;;;;;;0.00;0.00;;;;;;;;4727394;29;48358;-90
2022/11/04 14:16:09;;;;;;;;;0.00;0.00;;;;;;;;4730958;29;45710;-91
2022/11/04 14:18:36;;;;;;;;;0.00;0.00;;;;;;;;4741396;29;45582;-91
2022/11/04 14:21:04;;;;;;;;;0.00;0.00;;;;;;;;4730184;29;45443;-91
2022/11/04 14:23:30;;;;;;;;;0.00;0.00;;;;;;;;4724833;29;47359;-90
2022/11/04 14:26:00;;;;;;;;;0.00;0.00;;;;;;;;4733271;29;45532;-92
2022/11/04 14:28:27;;;;;;;;;0.00;0.00;;;;;;;;4732690;29;45557;-92
2022/11/04 14:30:57;;;;;;;;;0.00;0.00;;;;;;;;4730902;29;45464;-92
2022/11/04 14:33:28;;;;;;;;;0.00;0.00;;;;;;;;4721172;29;47147;-90
2022/11/04 14:35:55;;;;;;;;;0.00;0.00;;;;;;;;4724276;29;47127;-92
2022/11/04 14:38:25;;;;;;;;;0.00;0.00;;;;;;;;4731063;29;45518;-91
2022/11/04 14:40:52;;;;;;;;;0.00;0.00;;;;;;;;4731239;29;45547;-90
2022/11/04 14:43:37;;;;;;;;;0.00;0.00;;;;;;;;4726904;30;48046;-89
2022/11/04 14:46:03;;;;;;;;;0.00;0.00;;;;;;;;4728640;29;45423;-90
2022/11/04 14:48:29;;;;;;;;;0.00;0.00;;;;;;;;4743446;29;45425;-89
2022/11/04 14:50:55;;;;;;;;;0.00;0.00;;;;;;;;4751133;29;45464;-90
2022/11/04 14:53:40;;;;;;;;;0.00;0.00;;;;;;;;4738622;29;47460;-91
2022/11/04 14:56:16;;;;;;;;;0.00;0.00;;;;;;;;4730973;29;45519;-89
2022/11/04 14:58:55;;;;;;;;;0.00;0.00;;;;;;;;4747374;29;45448;-89
2022/11/04 15:01:21;;;;;;;;;0.00;0.00;;;;;;;;4725575;29;45530;-89
2022/11/04 15:03:47;;;;;;;;;0.00;0.00;;;;;;;;4738870;29;45542;-89
2022/11/04 15:06:12;;;;;;;;;0.00;0.00;;;;;;;;4745794;29;45482;-89
2022/11/04 15:08:40;;;;;;;;;0.00;0.00;;;;;;;;4727988;29;45723;-89
2022/11/04 15:11:06;;;;;;;;;0.00;0.00;;;;;;;;4722398;29;45844;-90
2022/11/04 15:13:32;;;;;;;;;0.00;0.00;;;;;;;;4740028;29;46677;-90
2022/11/04 15:15:57;;;;;;;;;0.00;0.00;;;;;;;;4727966;29;45945;-88
2022/11/04 15:18:25;;;;;;;;;0.00;0.00;;;;;;;;4733135;29;45734;-90
2022/11/04 15:20:56;;;;;;;;;0.00;0.00;;;;;;;;4726700;29;45520;-91
2022/11/04 15:23:29;;;;;;;;;0.00;0.00;;;;;;;;4723620;29;47083;-89